KMGC/MGC METAR and TAF weather

Enter ICAO airport designator
Station Type Date Time Source
KMGC METAR 2021/04/13 23:55 UTC NOAA

KMGC 132355Z AUTO 31005KT 10SM CLR 09/00 A3011 RMK AO2


Station Type Date Time Source
KMGC Decoded METAR 2021/04/13 23:55 UTC NOAA

Station name not available
Apr 13, 2021 - 07:55 PM EDT / 2021.04.13 2355 UTC
Wind: from the NW (310 degrees) at 6 MPH (5 KT):0
Visibility: 10 mile(s):0
Sky conditions: clear
Temperature: 48 F (9 C)
Dew Point: 32 F (0 C)
Relative Humidity: 53%
Pressure (altimeter): 30.11 in. Hg (1019 hPa)
ob: KMGC 132355Z AUTO 31005KT 10SM CLR 09/00 A3011 RMK AO2
cycle: 0

Station Type Date Time Source
KMGC TAF UTC NOAA

Error!

Example: see airport list